sensor_id;sensor_type;location;lat;lon;timestamp;temperature;humidity
7445;DHT22;3764;48.126;11.594;2023-04-27T00:00:35;8.60;99.90
7445;DHT22;3764;48.126;11.594;2023-04-27T00:03:02;8.60;99.90
7445;DHT22;3764;48.126;11.594;2023-04-27T00:05:32;8.50;99.90
7445;DHT22;3764;48.126;11.594;2023-04-27T00:08:01;8.60;99.90
7445;DHT22;3764;48.126;11.594;2023-04-27T00:10:28;8.60;99.90
7445;DHT22;3764;48.126;11.594;2023-04-27T00:12:55;8.70;99.90
7445;DHT22;3764;48.126;11.594;2023-04-27T00:15:23;8.70;99.90
7445;DHT22;3764;48.126;11.594;2023-04-27T00:17:50;8.60;99.90
7445;DHT22;3764;48.126;11.594;2023-04-27T00:20:17;8.70;99.90
7445;DHT22;3764;48.126;11.594;2023-04-27T00:22:45;8.70;99.90
7445;DHT22;3764;48.126;11.594;2023-04-27T00:25:14;8.70;99.90
7445;DHT22;3764;48.126;11.594;2023-04-27T00:27:41;8.60;99.90
7445;DHT22;3764;48.126;11.594;2023-04-27T00:30:09;8.60;99.90
7445;DHT22;3764;48.126;11.594;2023-04-27T00:32:37;8.60;99.90
7445;DHT22;3764;48.126;11.594;2023-04-27T00:35:04;8.60;99.90
7445;DHT22;3764;48.126;11.594;2023-04-27T00:37:31;8.60;99.90
7445;DHT22;3764;48.126;11.594;2023-04-27T00:39:59;8.60;99.90
7445;DHT22;3764;48.126;11.594;2023-04-27T00:42:27;8.60;99.90
7445;DHT22;3764;48.126;11.594;2023-04-27T00:44:56;8.60;99.90
7445;DHT22;3764;48.126;11.594;2023-04-27T00:47:23;8.50;99.90
7445;DHT22;3764;48.126;11.594;2023-04-27T00:49:51;8.50;99.90
7445;DHT22;3764;48.126;11.594;2023-04-27T00:52:19;8.50;99.90
7445;DHT22;3764;48.126;11.594;2023-04-27T00:54:49;8.50;99.90
7445;DHT22;3764;48.126;11.594;2023-04-27T00:57:16;8.50;99.90
7445;DHT22;3764;48.126;11.594;2023-04-27T00:59:45;8.60;99.90
7445;DHT22;3764;48.126;11.594;2023-04-27T01:02:12;8.60;99.90
7445;DHT22;3764;48.126;11.594;2023-04-27T01:04:40;8.60;99.90
7445;DHT22;3764;48.126;11.594;2023-04-27T01:07:07;8.60;99.90
7445;DHT22;3764;48.126;11.594;2023-04-27T01:09:34;8.60;99.90
7445;DHT22;3764;48.126;11.594;2023-04-27T01:12:01;8.60;99.90
7445;DHT22;3764;48.126;11.594;2023-04-27T01:14:29;8.60;99.90
7445;DHT22;3764;48.126;11.594;2023-04-27T01:16:57;8.60;99.90
7445;DHT22;3764;48.126;11.594;2023-04-27T01:19:25;8.50;99.90
7445;DHT22;3764;48.126;11.594;2023-04-27T01:21:52;8.40;99.90
7445;DHT22;3764;48.126;11.594;2023-04-27T01:24:20;8.40;99.90
7445;DHT22;3764;48.126;11.594;2023-04-27T01:26:48;8.40;99.90
7445;DHT22;3764;48.126;11.594;2023-04-27T01:29:17;8.40;99.90
7445;DHT22;3764;48.126;11.594;2023-04-27T01:31:44;8.40;99.90
7445;DHT22;3764;48.126;11.594;2023-04-27T01:34:11;8.40;99.90
7445;DHT22;3764;48.126;11.594;2023-04-27T01:36:38;8.50;99.90
7445;DHT22;3764;48.126;11.594;2023-04-27T01:39:05;8.50;99.90
7445;DHT22;3764;48.126;11.594;2023-04-27T01:41:36;8.50;99.90
7445;DHT22;3764;48.126;11.594;2023-04-27T01:44:03;8.50;99.90
7445;DHT22;3764;48.126;11.594;2023-04-27T01:46:31;8.50;99.90
7445;DHT22;3764;48.126;11.594;2023-04-27T01:48:58;8.50;99.90
7445;DHT22;3764;48.126;11.594;2023-04-27T01:51:32;8.50;99.90
7445;DHT22;3764;48.126;11.594;2023-04-27T01:53:59;8.50;99.90
7445;DHT22;3764;48.126;11.594;2023-04-27T01:56:26;8.50;99.90
7445;DHT22;3764;48.126;11.594;2023-04-27T01:58:55;8.50;99.90
7445;DHT22;3764;48.126;11.594;2023-04-27T02:01:22;8.50;99.90
7445;DHT22;3764;48.126;11.594;2023-04-27T02:03:49;8.50;99.90
7445;DHT22;3764;48.126;11.594;2023-04-27T02:06:16;8.50;99.90
7445;DHT22;3764;48.126;11.594;2023-04-27T02:08:43;8.50;99.90
7445;DHT22;3764;48.126;11.594;2023-04-27T02:11:10;8.50;99.90
7445;DHT22;3764;48.126;11.594;2023-04-27T02:13:37;8.50;99.90
7445;DHT22;3764;48.126;11.594;2023-04-27T02:16:06;8.50;99.90
7445;DHT22;3764;48.126;11.594;2023-04-27T02:18:34;8.50;99.90
7445;DHT22;3764;48.126;11.594;2023-04-27T02:21:07;8.50;99.90
7445;DHT22;3764;48.126;11.594;2023-04-27T02:23:35;8.50;99.90
7445;DHT22;3764;48.126;11.594;2023-04-27T02:26:02;8.50;99.90
7445;DHT22;3764;48.126;11.594;2023-04-27T02:28:30;8.50;99.90
7445;DHT22;3764;48.126;11.594;2023-04-27T02:30:57;8.50;99.90
7445;DHT22;3764;48.126;11.594;2023-04-27T02:33:26;8.50;99.90
7445;DHT22;3764;48.126;11.594;2023-04-27T02:35:53;8.50;99.90
7445;DHT22;3764;48.126;11.594;2023-04-27T02:38:20;8.50;99.90
7445;DHT22;3764;48.126;11.594;2023-04-27T02:40:52;8.50;99.90
7445;DHT22;3764;48.126;11.594;2023-04-27T02:43:20;8.40;99.90
7445;DHT22;3764;48.126;11.594;2023-04-27T02:45:47;8.40;99.90
7445;DHT22;3764;48.126;11.594;2023-04-27T02:48:14;8.40;99.90
7445;DHT22;3764;48.126;11.594;2023-04-27T02:50:44;8.40;99.90
7445;DHT22;3764;48.126;11.594;2023-04-27T02:53:11;8.40;99.90
7445;DHT22;3764;48.126;11.594;2023-04-27T02:55:44;8.30;99.90
7445;DHT22;3764;48.126;11.594;2023-04-27T02:58:13;8.30;99.90
7445;DHT22;3764;48.126;11.594;2023-04-27T03:00:40;8.30;99.90
7445;DHT22;3764;48.126;11.594;2023-04-27T03:03:07;8.30;99.90
7445;DHT22;3764;48.126;11.594;2023-04-27T03:05:35;8.30;99.90
7445;DHT22;3764;48.126;11.594;2023-04-27T03:08:04;8.20;99.90
7445;DHT22;3764;48.126;11.594;2023-04-27T03:10:31;8.20;99.90
7445;DHT22;3764;48.126;11.594;2023-04-27T03:12:58;8.20;99.90
7445;DHT22;3764;48.126;11.594;2023-04-27T03:15:29;8.20;99.90
7445;DHT22;3764;48.126;11.594;2023-04-27T03:17:56;8.20;99.90
7445;DHT22;3764;48.126;11.594;2023-04-27T03:20:24;8.20;99.90
7445;DHT22;3764;48.126;11.594;2023-04-27T03:22:51;8.10;99.90
7445;DHT22;3764;48.126;11.594;2023-04-27T03:25:23;8.10;99.90
7445;DHT22;3764;48.126;11.594;2023-04-27T03:27:50;8.10;99.90
7445;DHT22;3764;48.126;11.594;2023-04-27T03:30:17;8.10;99.90
7445;DHT22;3764;48.126;11.594;2023-04-27T03:32:45;8.10;99.90
7445;DHT22;3764;48.126;11.594;2023-04-27T03:35:12;8.10;99.90
7445;DHT22;3764;48.126;11.594;2023-04-27T03:37:39;8.10;99.90
7445;DHT22;3764;48.126;11.594;2023-04-27T03:40:07;8.10;99.90
7445;DHT22;3764;48.126;11.594;2023-04-27T03:42:36;8.10;99.90
7445;DHT22;3764;48.126;11.594;2023-04-27T03:45:04;8.10;99.90
7445;DHT22;3764;48.126;11.594;2023-04-27T03:47:31;8.10;99.90
7445;DHT22;3764;48.126;11.594;2023-04-27T03:49:59;8.00;99.90
7445;DHT22;3764;48.126;11.594;2023-04-27T03:52:26;8.00;99.90
7445;DHT22;3764;48.126;11.594;2023-04-27T03:54:56;8.00;99.90
7445;DHT22;3764;48.126;11.594;2023-04-27T03:57:23;8.00;99.90
7445;DHT22;3764;48.126;11.594;2023-04-27T03:59:52;8.00;99.90
7445;DHT22;3764;48.126;11.594;2023-04-27T04:02:19;8.00;99.90
7445;DHT22;3764;48.126;11.594;2023-04-27T04:04:48;8.00;99.90
7445;DHT22;3764;48.126;11.594;2023-04-27T04:07:15;8.00;99.90
7445;DHT22;3764;48.126;11.594;2023-04-27T04:09:43;7.90;99.90
7445;DHT22;3764;48.126;11.594;2023-04-27T04:12:10;7.70;99.90
7445;DHT22;3764;48.126;11.594;2023-04-27T04:14:38;7.70;99.90
7445;DHT22;3764;48.126;11.594;2023-04-27T04:17:08;7.60;99.90
7445;DHT22;3764;48.126;11.594;2023-04-27T04:19:36;7.60;99.90
7445;DHT22;3764;48.126;11.594;2023-04-27T04:22:03;7.50;99.90
7445;DHT22;3764;48.126;11.594;2023-04-27T04:24:30;7.50;99.90
7445;DHT22;3764;48.126;11.594;2023-04-27T04:26:57;7.50;99.90
7445;DHT22;3764;48.126;11.594;2023-04-27T04:29:25;7.40;99.90
7445;DHT22;3764;48.126;11.594;2023-04-27T04:31:52;7.40;99.90
7445;DHT22;3764;48.126;11.594;2023-04-27T04:34:20;7.40;99.90
7445;DHT22;3764;48.126;11.594;2023-04-27T04:36:48;7.50;99.90
7445;DHT22;3764;48.126;11.594;2023-04-27T04:39:17;7.50;99.90
7445;DHT22;3764;48.126;11.594;2023-04-27T04:41:45;7.40;99.90
7445;DHT22;3764;48.126;11.594;2023-04-27T04:44:14;7.50;99.90
7445;DHT22;3764;48.126;11.594;2023-04-27T04:46:41;7.50;99.90
7445;DHT22;3764;48.126;11.594;2023-04-27T04:49:08;7.50;99.90
7445;DHT22;3764;48.126;11.594;2023-04-27T04:51:41;7.40;99.90
7445;DHT22;3764;48.126;11.594;2023-04-27T04:54:17;7.30;99.90
7445;DHT22;3764;48.126;11.594;2023-04-27T04:56:44;7.20;99.90
7445;DHT22;3764;48.126;11.594;2023-04-27T04:59:11;7.10;99.90
7445;DHT22;3764;48.126;11.594;2023-04-27T05:01:38;7.10;99.90
7445;DHT22;3764;48.126;11.594;2023-04-27T05:04:05;7.10;99.90
7445;DHT22;3764;48.126;11.594;2023-04-27T05:06:33;7.00;99.90
7445;DHT22;3764;48.126;11.594;2023-04-27T05:09:04;7.10;99.90
7445;DHT22;3764;48.126;11.594;2023-04-27T05:11:32;7.20;99.90
7445;DHT22;3764;48.126;11.594;2023-04-27T05:13:59;7.30;99.90
7445;DHT22;3764;48.126;11.594;2023-04-27T05:16:26;7.40;99.90
7445;DHT22;3764;48.126;11.594;2023-04-27T05:18:53;7.40;99.90
7445;DHT22;3764;48.126;11.594;2023-04-27T05:21:21;7.50;99.90
7445;DHT22;3764;48.126;11.594;2023-04-27T05:23:48;7.60;99.90
7445;DHT22;3764;48.126;11.594;2023-04-27T05:26:20;7.60;99.90
7445;DHT22;3764;48.126;11.594;2023-04-27T05:28:47;7.50;99.90
7445;DHT22;3764;48.126;11.594;2023-04-27T05:31:15;7.40;99.90
7445;DHT22;3764;48.126;11.594;2023-04-27T05:33:42;7.40;99.90
7445;DHT22;3764;48.126;11.594;2023-04-27T05:36:09;7.30;99.90
7445;DHT22;3764;48.126;11.594;2023-04-27T05:38:36;7.30;99.90
7445;DHT22;3764;48.126;11.594;2023-04-27T05:41:04;7.30;99.90
7445;DHT22;3764;48.126;11.594;2023-04-27T05:43:36;7.30;99.90
7445;DHT22;3764;48.126;11.594;2023-04-27T05:46:04;7.20;99.90
7445;DHT22;3764;48.126;11.594;2023-04-27T05:48:31;7.20;99.90
7445;DHT22;3764;48.126;11.594;2023-04-27T05:50:58;7.20;99.90
7445;DHT22;3764;48.126;11.594;2023-04-27T05:53:27;7.20;99.90
7445;DHT22;3764;48.126;11.594;2023-04-27T05:55:56;7.30;99.90
7445;DHT22;3764;48.126;11.594;2023-04-27T05:58:26;7.30;99.90
7445;DHT22;3764;48.126;11.594;2023-04-27T06:00:54;7.30;99.90
7445;DHT22;3764;48.126;11.594;2023-04-27T06:03:22;7.40;99.90
7445;DHT22;3764;48.126;11.594;2023-04-27T06:05:53;7.40;99.90
7445;DHT22;3764;48.126;11.594;2023-04-27T06:08:20;7.40;99.90
7445;DHT22;3764;48.126;11.594;2023-04-27T06:10:47;7.40;99.90
7445;DHT22;3764;48.126;11.594;2023-04-27T06:13:15;7.50;99.90
7445;DHT22;3764;48.126;11.594;2023-04-27T06:15:43;7.50;99.90
7445;DHT22;3764;48.126;11.594;2023-04-27T06:18:12;7.50;99.90
7445;DHT22;3764;48.126;11.594;2023-04-27T06:20:39;7.60;99.90
7445;DHT22;3764;48.126;11.594;2023-04-27T06:23:06;7.60;99.90
7445;DHT22;3764;48.126;11.594;2023-04-27T06:25:34;7.70;99.90
7445;DHT22;3764;48.126;11.594;2023-04-27T06:28:03;7.70;99.90
7445;DHT22;3764;48.126;11.594;2023-04-27T06:30:31;7.80;99.90
7445;DHT22;3764;48.126;11.594;2023-04-27T06:32:58;7.80;99.90
7445;DHT22;3764;48.126;11.594;2023-04-27T06:35:26;7.80;99.90
7445;DHT22;3764;48.126;11.594;2023-04-27T06:37:54;7.80;99.90
7445;DHT22;3764;48.126;11.594;2023-04-27T06:40:26;7.90;99.90
7445;DHT22;3764;48.126;11.594;2023-04-27T06:42:53;7.90;99.90
7445;DHT22;3764;48.126;11.594;2023-04-27T06:45:21;8.00;99.90
7445;DHT22;3764;48.126;11.594;2023-04-27T06:47:48;8.00;99.90
7445;DHT22;3764;48.126;11.594;2023-04-27T06:50:15;8.00;99.90
7445;DHT22;3764;48.126;11.594;2023-04-27T06:52:43;8.10;99.90
7445;DHT22;3764;48.126;11.594;2023-04-27T06:55:11;8.10;99.90
7445;DHT22;3764;48.126;11.594;2023-04-27T06:57:38;8.20;99.90
7445;DHT22;3764;48.126;11.594;2023-04-27T07:00:06;8.20;99.90
7445;DHT22;3764;48.126;11.594;2023-04-27T07:02:33;8.20;99.90
7445;DHT22;3764;48.126;11.594;2023-04-27T07:05:01;8.30;99.90
7445;DHT22;3764;48.126;11.594;2023-04-27T07:07:28;8.40;99.90
7445;DHT22;3764;48.126;11.594;2023-04-27T07:09:58;8.40;99.90
7445;DHT22;3764;48.126;11.594;2023-04-27T07:12:26;8.50;99.90
7445;DHT22;3764;48.126;11.594;2023-04-27T07:14:53;8.50;99.90
7445;DHT22;3764;48.126;11.594;2023-04-27T07:17:20;8.50;99.90
7445;DHT22;3764;48.126;11.594;2023-04-27T07:19:47;8.60;99.90
7445;DHT22;3764;48.126;11.594;2023-04-27T07:22:14;8.60;99.90
7445;DHT22;3764;48.126;11.594;2023-04-27T07:24:42;8.70;99.90
7445;DHT22;3764;48.126;11.594;2023-04-27T07:27:11;8.70;99.90
7445;DHT22;3764;48.126;11.594;2023-04-27T07:29:38;8.70;99.90
7445;DHT22;3764;48.126;11.594;2023-04-27T07:32:05;8.80;99.90
7445;DHT22;3764;48.126;11.594;2023-04-27T07:34:33;8.80;99.90
7445;DHT22;3764;48.126;11.594;2023-04-27T07:37:00;8.90;99.90
7445;DHT22;3764;48.126;11.594;2023-04-27T07:39:27;8.90;99.90
7445;DHT22;3764;48.126;11.594;2023-04-27T07:41:54;9.00;99.90
7445;DHT22;3764;48.126;11.594;2023-04-27T07:44:24;9.10;99.90
7445;DHT22;3764;48.126;11.594;2023-04-27T07:46:51;9.10;99.90
7445;DHT22;3764;48.126;11.594;2023-04-27T07:49:23;9.20;99.90
7445;DHT22;3764;48.126;11.594;2023-04-27T07:51:50;9.20;99.90
7445;DHT22;3764;48.126;11.594;2023-04-27T07:54:18;9.10;99.90
7445;DHT22;3764;48.126;11.594;2023-04-27T07:56:45;9.30;99.90
7445;DHT22;3764;48.126;11.594;2023-04-27T07:59:12;9.30;99.90
7445;DHT22;3764;48.126;11.594;2023-04-27T08:01:41;9.40;99.90
7445;DHT22;3764;48.126;11.594;2023-04-27T08:04:08;9.40;99.90
7445;DHT22;3764;48.126;11.594;2023-04-27T08:06:39;9.50;99.90
7445;DHT22;3764;48.126;11.594;2023-04-27T08:09:06;9.50;99.90
7445;DHT22;3764;48.126;11.594;2023-04-27T08:11:34;9.60;99.90
7445;DHT22;3764;48.126;11.594;2023-04-27T08:14:01;9.70;99.90
7445;DHT22;3764;48.126;11.594;2023-04-27T08:16:28;9.70;99.90
7445;DHT22;3764;48.126;11.594;2023-04-27T08:18:57;9.80;99.90
7445;DHT22;3764;48.126;11.594;2023-04-27T08:21:24;9.90;99.90
7445;DHT22;3764;48.126;11.594;2023-04-27T08:24:04;9.90;99.90
7445;DHT22;3764;48.126;11.594;2023-04-27T08:26:44;9.90;99.90
7445;DHT22;3764;48.126;11.594;2023-04-27T08:29:11;9.90;99.90
7445;DHT22;3764;48.126;11.594;2023-04-27T08:31:49;9.90;99.90
7445;DHT22;3764;48.126;11.594;2023-04-27T08:34:18;10.00;99.90
7445;DHT22;3764;48.126;11.594;2023-04-27T08:36:45;10.10;99.90
7445;DHT22;3764;48.126;11.594;2023-04-27T08:39:12;10.10;99.90
7445;DHT22;3764;48.126;11.594;2023-04-27T08:41:41;10.20;99.90
7445;DHT22;3764;48.126;11.594;2023-04-27T08:44:09;10.20;99.90
7445;DHT22;3764;48.126;11.594;2023-04-27T08:46:46;10.20;99.90
7445;DHT22;3764;48.126;11.594;2023-04-27T08:49:13;10.30;99.90
7445;DHT22;3764;48.126;11.594;2023-04-27T08:51:42;10.30;99.90
7445;DHT22;3764;48.126;11.594;2023-04-27T08:54:10;10.30;99.90
7445;DHT22;3764;48.126;11.594;2023-04-27T08:56:38;10.40;99.90
7445;DHT22;3764;48.126;11.594;2023-04-27T08:59:13;10.50;99.90
7445;DHT22;3764;48.126;11.594;2023-04-27T09:01:48;10.60;99.90
7445;DHT22;3764;48.126;11.594;2023-04-27T09:04:16;10.60;99.90
7445;DHT22;3764;48.126;11.594;2023-04-27T09:06:45;10.70;99.90
7445;DHT22;3764;48.126;11.594;2023-04-27T09:09:21;10.70;99.90
7445;DHT22;3764;48.126;11.594;2023-04-27T09:11:49;10.80;99.90
7445;DHT22;3764;48.126;11.594;2023-04-27T09:14:17;10.80;99.90
7445;DHT22;3764;48.126;11.594;2023-04-27T09:16:53;11.00;99.90
7445;DHT22;3764;48.126;11.594;2023-04-27T09:19:26;11.00;99.90
7445;DHT22;3764;48.126;11.594;2023-04-27T09:22:04;11.00;99.90
7445;DHT22;3764;48.126;11.594;2023-04-27T09:24:32;11.10;99.90
7445;DHT22;3764;48.126;11.594;2023-04-27T09:26:59;11.20;99.90
7445;DHT22;3764;48.126;11.594;2023-04-27T09:29:34;11.20;99.90
7445;DHT22;3764;48.126;11.594;2023-04-27T09:32:12;11.30;99.90
7445;DHT22;3764;48.126;11.594;2023-04-27T09:34:40;11.40;99.90
7445;DHT22;3764;48.126;11.594;2023-04-27T09:37:09;11.40;99.90
7445;DHT22;3764;48.126;11.594;2023-04-27T09:39:37;11.50;99.90
7445;DHT22;3764;48.126;11.594;2023-04-27T09:42:05;11.50;99.90
7445;DHT22;3764;48.126;11.594;2023-04-27T09:44:33;11.60;99.90
7445;DHT22;3764;48.126;11.594;2023-04-27T09:47:01;11.70;99.90
7445;DHT22;3764;48.126;11.594;2023-04-27T09:49:28;11.90;99.90
7445;DHT22;3764;48.126;11.594;2023-04-27T09:51:56;12.00;99.90
7445;DHT22;3764;48.126;11.594;2023-04-27T09:54:26;12.10;99.90
7445;DHT22;3764;48.126;11.594;2023-04-27T09:57:06;12.20;99.90
7445;DHT22;3764;48.126;11.594;2023-04-27T09:59:47;12.20;99.90
7445;DHT22;3764;48.126;11.594;2023-04-27T10:02:22;12.30;99.90
7445;DHT22;3764;48.126;11.594;2023-04-27T10:05:15;12.40;99.90
7445;DHT22;3764;48.126;11.594;2023-04-27T10:07:46;12.50;99.90
7445;DHT22;3764;48.126;11.594;2023-04-27T10:10:17;12.50;99.90
7445;DHT22;3764;48.126;11.594;2023-04-27T10:12:55;12.50;99.90
7445;DHT22;3764;48.126;11.594;2023-04-27T10:15:26;12.50;99.90
7445;DHT22;3764;48.126;11.594;2023-04-27T10:17:53;12.50;99.90
7445;DHT22;3764;48.126;11.594;2023-04-27T10:20:30;12.60;99.90
7445;DHT22;3764;48.126;11.594;2023-04-27T10:22:58;12.60;99.90
7445;DHT22;3764;48.126;11.594;2023-04-27T10:25:28;12.70;99.90
7445;DHT22;3764;48.126;11.594;2023-04-27T10:27:57;12.70;99.90
7445;DHT22;3764;48.126;11.594;2023-04-27T10:30:26;12.80;99.90
7445;DHT22;3764;48.126;11.594;2023-04-27T10:32:54;12.80;99.90
7445;DHT22;3764;48.126;11.594;2023-04-27T10:35:32;12.80;99.90
7445;DHT22;3764;48.126;11.594;2023-04-27T10:38:05;12.90;99.90
7445;DHT22;3764;48.126;11.594;2023-04-27T10:40:35;13.00;99.90
7445;DHT22;3764;48.126;11.594;2023-04-27T10:43:09;13.20;99.90
7445;DHT22;3764;48.126;11.594;2023-04-27T10:45:37;13.20;99.90
7445;DHT22;3764;48.126;11.594;2023-04-27T10:48:04;13.20;99.90
7445;DHT22;3764;48.126;11.594;2023-04-27T10:50:32;13.20;99.90
7445;DHT22;3764;48.126;11.594;2023-04-27T10:53:00;13.30;99.90
7445;DHT22;3764;48.126;11.594;2023-04-27T10:55:29;13.40;99.90
7445;DHT22;3764;48.126;11.594;2023-04-27T10:57:58;13.40;99.90
7445;DHT22;3764;48.126;11.594;2023-04-27T11:00:27;13.50;99.90
7445;DHT22;3764;48.126;11.594;2023-04-27T11:02:56;13.60;99.90
7445;DHT22;3764;48.126;11.594;2023-04-27T11:05:26;13.80;99.90
7445;DHT22;3764;48.126;11.594;2023-04-27T11:08:04;13.90;99.90
7445;DHT22;3764;48.126;11.594;2023-04-27T11:10:32;13.90;99.90
7445;DHT22;3764;48.126;11.594;2023-04-27T11:13:07;13.90;99.90
7445;DHT22;3764;48.126;11.594;2023-04-27T11:15:45;14.00;99.90
7445;DHT22;3764;48.126;11.594;2023-04-27T11:18:13;13.90;99.90
7445;DHT22;3764;48.126;11.594;2023-04-27T11:20:43;13.80;99.90
7445;DHT22;3764;48.126;11.594;2023-04-27T11:23:10;13.80;99.90
7445;DHT22;3764;48.126;11.594;2023-04-27T11:25:37;13.70;99.90
7445;DHT22;3764;48.126;11.594;2023-04-27T11:28:16;13.90;99.90
7445;DHT22;3764;48.126;11.594;2023-04-27T11:30:43;14.00;99.90
7445;DHT22;3764;48.126;11.594;2023-04-27T11:33:11;14.00;99.90
7445;DHT22;3764;48.126;11.594;2023-04-27T11:35:38;13.90;99.90
7445;DHT22;3764;48.126;11.594;2023-04-27T11:38:05;13.80;99.90
7445;DHT22;3764;48.126;11.594;2023-04-27T11:40:32;13.60;99.90
7445;DHT22;3764;48.126;11.594;2023-04-27T11:43:00;13.50;99.90
7445;DHT22;3764;48.126;11.594;2023-04-27T11:45:30;13.50;99.90
7445;DHT22;3764;48.126;11.594;2023-04-27T11:47:57;13.50;99.90
7445;DHT22;3764;48.126;11.594;2023-04-27T11:50:24;13.50;99.90
7445;DHT22;3764;48.126;11.594;2023-04-27T11:52:52;13.60;99.90
7445;DHT22;3764;48.126;11.594;2023-04-27T11:55:22;13.80;99.90
7445;DHT22;3764;48.126;11.594;2023-04-27T11:57:56;13.80;99.90
7445;DHT22;3764;48.126;11.594;2023-04-27T12:00:23;13.80;99.90
7445;DHT22;3764;48.126;11.594;2023-04-27T12:02:52;13.70;99.90
7445;DHT22;3764;48.126;11.594;2023-04-27T12:05:19;13.70;99.90
7445;DHT22;3764;48.126;11.594;2023-04-27T12:07:46;13.60;99.90
7445;DHT22;3764;48.126;11.594;2023-04-27T12:10:13;13.50;99.90
7445;DHT22;3764;48.126;11.594;2023-04-27T12:12:41;13.50;99.90
7445;DHT22;3764;48.126;11.594;2023-04-27T12:15:09;13.50;99.90
7445;DHT22;3764;48.126;11.594;2023-04-27T12:17:37;13.50;99.90
7445;DHT22;3764;48.126;11.594;2023-04-27T12:20:07;13.50;99.90
7445;DHT22;3764;48.126;11.594;2023-04-27T12:22:34;13.40;99.90
7445;DHT22;3764;48.126;11.594;2023-04-27T12:25:02;13.40;99.90
7445;DHT22;3764;48.126;11.594;2023-04-27T12:27:29;13.40;99.90
7445;DHT22;3764;48.126;11.594;2023-04-27T12:29:56;13.50;99.90
7445;DHT22;3764;48.126;11.594;2023-04-27T12:32:25;13.60;99.90
7445;DHT22;3764;48.126;11.594;2023-04-27T12:34:52;13.60;99.90
7445;DHT22;3764;48.126;11.594;2023-04-27T12:37:21;13.60;99.90
7445;DHT22;3764;48.126;11.594;2023-04-27T12:39:48;13.60;99.90
7445;DHT22;3764;48.126;11.594;2023-04-27T12:42:15;13.60;99.90
7445;DHT22;3764;48.126;11.594;2023-04-27T12:44:44;13.70;99.90
7445;DHT22;3764;48.126;11.594;2023-04-27T12:47:12;13.70;99.90
7445;DHT22;3764;48.126;11.594;2023-04-27T12:49:39;13.80;99.90
7445;DHT22;3764;48.126;11.594;2023-04-27T12:52:06;13.90;99.90
7445;DHT22;3764;48.126;11.594;2023-04-27T12:54:34;14.00;99.90
7445;DHT22;3764;48.126;11.594;2023-04-27T12:57:02;14.10;99.90
7445;DHT22;3764;48.126;11.594;2023-04-27T12:59:31;14.20;99.90
7445;DHT22;3764;48.126;11.594;2023-04-27T13:01:59;14.20;99.90
7445;DHT22;3764;48.126;11.594;2023-04-27T13:04:26;14.20;99.90
7445;DHT22;3764;48.126;11.594;2023-04-27T13:06:54;14.30;99.90
7445;DHT22;3764;48.126;11.594;2023-04-27T13:09:21;14.40;99.90
7445;DHT22;3764;48.126;11.594;2023-04-27T13:11:49;14.60;99.90
7445;DHT22;3764;48.126;11.594;2023-04-27T13:14:17;14.60;99.90
7445;DHT22;3764;48.126;11.594;2023-04-27T13:16:44;14.60;99.90
7445;DHT22;3764;48.126;11.594;2023-04-27T13:19:11;14.60;99.90
7445;DHT22;3764;48.126;11.594;2023-04-27T13:21:38;14.50;99.90
7445;DHT22;3764;48.126;11.594;2023-04-27T13:24:06;14.50;99.90
7445;DHT22;3764;48.126;11.594;2023-04-27T13:26:33;14.40;99.90
7445;DHT22;3764;48.126;11.594;2023-04-27T13:29:02;14.40;99.90
7445;DHT22;3764;48.126;11.594;2023-04-27T13:31:31;14.40;99.90
7445;DHT22;3764;48.126;11.594;2023-04-27T13:33:58;14.40;99.90
7445;DHT22;3764;48.126;11.594;2023-04-27T13:36:26;14.30;99.90
7445;DHT22;3764;48.126;11.594;2023-04-27T13:38:53;14.30;99.90
7445;DHT22;3764;48.126;11.594;2023-04-27T13:41:21;14.40;99.90
7445;DHT22;3764;48.126;11.594;2023-04-27T13:43:48;14.50;99.90
7445;DHT22;3764;48.126;11.594;2023-04-27T13:46:16;14.60;99.90
7445;DHT22;3764;48.126;11.594;2023-04-27T13:48:43;14.50;99.90
7445;DHT22;3764;48.126;11.594;2023-04-27T13:51:11;14.50;99.90
7445;DHT22;3764;48.126;11.594;2023-04-27T13:53:40;14.40;99.90
7445;DHT22;3764;48.126;11.594;2023-04-27T13:56:07;14.40;99.90
7445;DHT22;3764;48.126;11.594;2023-04-27T13:58:34;14.40;99.90
7445;DHT22;3764;48.126;11.594;2023-04-27T14:01:01;14.30;99.90
7445;DHT22;3764;48.126;11.594;2023-04-27T14:03:30;14.20;99.90
7445;DHT22;3764;48.126;11.594;2023-04-27T14:05:58;14.20;99.90
7445;DHT22;3764;48.126;11.594;2023-04-27T14:08:26;14.20;99.90
7445;DHT22;3764;48.126;11.594;2023-04-27T14:10:53;14.20;99.90
7445;DHT22;3764;48.126;11.594;2023-04-27T14:13:20;14.30;99.90
7445;DHT22;3764;48.126;11.594;2023-04-27T14:15:47;14.30;99.90
7445;DHT22;3764;48.126;11.594;2023-04-27T14:18:14;14.30;99.90
7445;DHT22;3764;48.126;11.594;2023-04-27T14:20:43;14.20;99.90
7445;DHT22;3764;48.126;11.594;2023-04-27T14:23:11;14.20;99.90
7445;DHT22;3764;48.126;11.594;2023-04-27T14:25:38;14.20;99.90
7445;DHT22;3764;48.126;11.594;2023-04-27T14:28:05;14.20;99.90
7445;DHT22;3764;48.126;11.594;2023-04-27T14:30:34;14.20;99.90
7445;DHT22;3764;48.126;11.594;2023-04-27T14:33:01;14.40;99.90
7445;DHT22;3764;48.126;11.594;2023-04-27T14:35:28;14.60;99.90
7445;DHT22;3764;48.126;11.594;2023-04-27T14:37:57;14.70;99.90
7445;DHT22;3764;48.126;11.594;2023-04-27T14:40:27;14.80;99.90
7445;DHT22;3764;48.126;11.594;2023-04-27T14:42:54;14.90;99.90
7445;DHT22;3764;48.126;11.594;2023-04-27T14:45:21;15.10;99.90
7445;DHT22;3764;48.126;11.594;2023-04-27T14:47:49;15.00;99.90
7445;DHT22;3764;48.126;11.594;2023-04-27T14:50:16;15.00;99.90
7445;DHT22;3764;48.126;11.594;2023-04-27T14:52:43;15.10;99.90
7445;DHT22;3764;48.126;11.594;2023-04-27T14:55:11;15.10;99.90
7445;DHT22;3764;48.126;11.594;2023-04-27T14:57:39;15.20;99.90
7445;DHT22;3764;48.126;11.594;2023-04-27T15:00:08;15.20;99.90
7445;DHT22;3764;48.126;11.594;2023-04-27T15:02:35;15.20;99.90
7445;DHT22;3764;48.126;11.594;2023-04-27T15:05:03;15.20;99.90
7445;DHT22;3764;48.126;11.594;2023-04-27T15:07:30;15.30;99.90
7445;DHT22;3764;48.126;11.594;2023-04-27T15:09:57;15.50;99.90
7445;DHT22;3764;48.126;11.594;2023-04-27T15:12:26;15.60;99.90
7445;DHT22;3764;48.126;11.594;2023-04-27T15:14:53;15.70;99.90
7445;DHT22;3764;48.126;11.594;2023-04-27T15:17:20;15.60;99.90
7445;DHT22;3764;48.126;11.594;2023-04-27T15:19:48;15.50;99.90
7445;DHT22;3764;48.126;11.594;2023-04-27T15:22:16;15.40;99.90
7445;DHT22;3764;48.126;11.594;2023-04-27T15:24:43;15.40;99.90
7445;DHT22;3764;48.126;11.594;2023-04-27T15:27:10;15.40;99.90
7445;DHT22;3764;48.126;11.594;2023-04-27T15:29:39;15.40;99.90
7445;DHT22;3764;48.126;11.594;2023-04-27T15:32:07;15.50;99.90
7445;DHT22;3764;48.126;11.594;2023-04-27T15:34:34;15.60;99.90
7445;DHT22;3764;48.126;11.594;2023-04-27T15:37:01;15.60;99.90
7445;DHT22;3764;48.126;11.594;2023-04-27T15:39:28;15.60;99.90
7445;DHT22;3764;48.126;11.594;2023-04-27T15:41:55;15.60;99.90
7445;DHT22;3764;48.126;11.594;2023-04-27T15:44:24;15.70;99.90
7445;DHT22;3764;48.126;11.594;2023-04-27T15:46:53;15.60;99.90
7445;DHT22;3764;48.126;11.594;2023-04-27T15:49:20;15.50;99.90
7445;DHT22;3764;48.126;11.594;2023-04-27T15:51:47;15.40;99.90
7445;DHT22;3764;48.126;11.594;2023-04-27T15:54:16;15.30;99.90
7445;DHT22;3764;48.126;11.594;2023-04-27T15:56:43;15.20;99.90
7445;DHT22;3764;48.126;11.594;2023-04-27T15:59:10;15.20;99.90
7445;DHT22;3764;48.126;11.594;2023-04-27T16:01:37;15.20;99.90